Time;durP1;ratioP1;P1;durP2;ratioP2;P2;SDS_P1;SDS_P2;PMS_P1;PMS_P2;Temp;Humidity;BMP_temperature;BMP_pressure;BME280_temperature;BME280_humidity;BME280_pressure;Samples;Min_cycle;Max_cycle;Signal;HPM_P1;HPM_P2
2021/06/02 00:01:48;;;;;;;2.00;1.55;;;16.70;58.50;;;;;;5113573;28;20027;-75
2021/06/02 00:04:18;;;;;;;2.00;1.80;;;16.60;58.60;;;;;;5112967;28;20111;-75
2021/06/02 00:06:44;;;;;;;3.58;1.90;;;16.60;59.60;;;;;;5113413;28;20084;-75
2021/06/02 00:09:10;;;;;;;3.17;2.00;;;16.60;59.50;;;;;;5112337;28;20028;-74
2021/06/02 00:11:36;;;;;;;3.72;1.90;;;16.50;59.60;;;;;;5113274;28;20028;-74
2021/06/02 00:14:03;;;;;;;5.20;2.20;;;16.50;59.60;;;;;;5094501;28;20035;-75
2021/06/02 00:16:29;;;;;;;2.35;1.92;;;16.40;60.10;;;;;;5095079;28;20042;-75
2021/06/02 00:18:55;;;;;;;3.05;1.90;;;16.40;60.50;;;;;;5113549;28;20035;-75
2021/06/02 00:21:21;;;;;;;2.22;1.83;;;16.30;60.50;;;;;;5094310;28;20039;-75
2021/06/02 00:23:47;;;;;;;2.47;1.92;;;16.20;60.60;;;;;;5094447;28;20052;-75
2021/06/02 00:26:14;;;;;;;2.65;1.92;;;16.20;60.50;;;;;;5112292;28;20111;-75
2021/06/02 00:28:41;;;;;;;2.17;1.98;;;16.20;60.50;;;;;;5095003;28;20122;-75
2021/06/02 00:31:07;;;;;;;2.40;1.80;;;16.20;60.50;;;;;;5094135;28;20024;-75
2021/06/02 00:33:33;;;;;;;1.92;1.42;;;16.20;60.30;;;;;;5112485;28;20023;-75
2021/06/02 00:36:01;;;;;;;4.72;2.17;;;16.10;60.20;;;;;;5112308;28;20479;-76
2021/06/02 00:38:27;;;;;;;4.63;2.08;;;16.10;60.00;;;;;;5094709;28;20030;-75
2021/06/02 00:40:53;;;;;;;2.20;1.98;;;16.20;59.90;;;;;;5113268;28;20028;-75
2021/06/02 00:43:19;;;;;;;3.42;2.03;;;16.20;60.20;;;;;;5094114;28;20035;-75
2021/06/02 00:45:46;;;;;;;4.00;2.00;;;16.20;60.00;;;;;;5094922;28;20114;-75
2021/06/02 00:48:15;;;;;;;5.03;1.95;;;16.10;60.30;;;;;;5094111;28;20020;-75
2021/06/02 00:50:46;;;;;;;3.22;1.92;;;16.00;60.30;;;;;;5094692;28;20024;-75
2021/06/02 00:53:12;;;;;;;2.97;2.10;;;15.90;60.60;;;;;;5093989;28;20031;-75
2021/06/02 00:55:38;;;;;;;2.58;1.80;;;15.90;61.10;;;;;;5094518;28;20130;-75
2021/06/02 00:58:08;;;;;;;1.85;1.73;;;15.80;60.90;;;;;;5093956;28;20058;-75
2021/06/02 01:00:34;;;;;;;2.92;1.83;;;15.70;61.30;;;;;;5094359;28;20035;-75
2021/06/02 01:03:02;;;;;;;3.17;2.05;;;15.70;61.10;;;;;;5111893;28;20031;-76
2021/06/02 01:05:28;;;;;;;3.55;2.10;;;15.70;61.20;;;;;;5094489;28;20391;-74
2021/06/02 01:08:01;;;;;;;2.38;1.80;;;15.60;61.10;;;;;;5112598;28;20028;-74
2021/06/02 01:10:28;;;;;;;2.15;1.80;;;15.60;61.60;;;;;;5094538;28;20084;-74
2021/06/02 01:12:57;;;;;;;4.97;2.40;;;15.60;61.30;;;;;;5094434;28;20483;-75
2021/06/02 01:15:25;;;;;;;2.45;2.08;;;15.60;60.70;;;;;;5094258;28;20084;-75
2021/06/02 01:17:50;;;;;;;4.57;2.08;;;15.70;60.50;;;;;;5094521;28;20072;-74
2021/06/02 01:20:17;;;;;;;2.95;2.10;;;15.70;60.70;;;;;;5093809;28;20020;-75
2021/06/02 01:22:43;;;;;;;3.00;1.85;;;15.70;60.10;;;;;;5112301;28;20020;-75
2021/06/02 01:25:17;;;;;;;3.22;1.95;;;15.70;61.30;;;;;;5093740;28;20128;-75
2021/06/02 01:27:47;;;;;;;3.95;1.90;;;15.70;61.10;;;;;;5094369;28;20061;-75
2021/06/02 01:30:20;;;;;;;2.03;1.80;;;15.60;61.00;;;;;;5093671;28;20030;-75
2021/06/02 01:32:56;;;;;;;3.22;1.60;;;15.60;61.50;;;;;;5094386;28;20030;-74
2021/06/02 01:35:27;;;;;;;3.55;2.38;;;15.60;61.60;;;;;;5093482;28;20032;-75
2021/06/02 01:38:34;;;;;;;2.60;1.80;;;15.50;62.00;;;;;;5093975;28;20110;-75
2021/06/02 01:41:09;;;;;;;2.70;1.67;;;15.50;60.80;;;;;;5093701;28;20031;-75
2021/06/02 01:44:07;;;;;;;3.53;2.38;;;15.60;61.40;;;;;;5094457;28;20418;-74
2021/06/02 01:47:00;;;;;;;3.55;2.13;;;15.50;60.80;;;;;;5097120;28;20047;-74
2021/06/02 01:49:50;;;;;;;2.33;1.52;;;15.50;60.70;;;;;;5097755;28;20049;-75
2021/06/02 01:52:33;;;;;;;3.22;2.20;;;15.40;61.10;;;;;;5115473;28;20065;-75
2021/06/02 01:55:32;;;;;;;2.83;1.88;;;15.30;61.20;;;;;;5115500;28;20479;-75
2021/06/02 01:58:07;;;;;;;3.30;2.53;;;15.30;61.60;;;;;;5115404;28;20047;-75
2021/06/02 02:00:51;;;;;;;4.13;2.20;;;15.30;61.60;;;;;;5118598;27;20038;-75
2021/06/02 02:04:08;;;;;;;2.95;1.92;;;15.30;62.40;;;;;;5115256;28;20111;-75
2021/06/02 02:06:40;;;;;;;5.55;2.25;;;15.30;62.50;;;;;;5055567;28;20035;-75
2021/06/02 02:09:27;;;;;;;2.78;2.10;;;15.10;61.50;;;;;;5115465;28;20107;-74
2021/06/02 02:12:05;;;;;;;7.45;2.30;;;15.10;62.00;;;;;;5131042;27;20034;-74
2021/06/02 02:14:52;;;;;;;4.90;2.10;;;15.00;62.00;;;;;;5136129;27;20077;-74
2021/06/02 02:17:30;;;;;;;3.10;1.85;;;15.00;62.30;;;;;;5116981;27;20027;-74
2021/06/02 02:20:21;;;;;;;6.20;1.80;;;15.00;62.50;;;;;;5136054;27;20047;-74
2021/06/02 02:22:59;;;;;;;4.80;2.28;;;15.00;62.60;;;;;;5135750;27;20031;-74
2021/06/02 02:25:45;;;;;;;2.50;2.00;;;14.90;62.30;;;;;;5117484;27;20076;-75
2021/06/02 02:28:48;;;;;;;3.38;2.10;;;14.90;62.70;;;;;;5116934;27;20084;-75
2021/06/02 02:31:44;;;;;;;2.28;1.77;;;14.80;63.40;;;;;;5100746;28;20541;-74
2021/06/02 02:34:40;;;;;;;3.42;1.75;;;14.70;63.80;;;;;;5096345;28;20046;-74
2021/06/02 02:37:07;;;;;;;3.10;2.22;;;14.60;64.30;;;;;;5096109;28;20032;-75
2021/06/02 02:39:55;;;;;;;2.92;2.10;;;14.60;64.30;;;;;;5096865;28;20482;-74
2021/06/02 02:42:40;;;;;;;2.92;2.00;;;14.60;64.10;;;;;;5133482;27;20023;-74
2021/06/02 02:45:08;;;;;;;3.22;2.22;;;14.50;64.00;;;;;;5116602;27;20035;-74
2021/06/02 02:47:56;;;;;;;2.88;1.90;;;14.50;64.20;;;;;;5117047;27;20027;-75
2021/06/02 02:50:38;;;;;;;3.50;2.22;;;14.50;64.10;;;;;;5134339;27;20062;-75
2021/06/02 02:53:14;;;;;;;3.13;2.00;;;14.50;64.10;;;;;;5134858;27;20031;-75
2021/06/02 02:55:40;;;;;;;2.30;1.85;;;14.50;64.30;;;;;;5116520;27;20043;-75
2021/06/02 02:58:40;;;;;;;3.33;2.20;;;14.50;64.00;;;;;;5116362;27;20486;-74
2021/06/02 03:01:14;;;;;;;2.70;2.00;;;14.40;64.30;;;;;;5125068;27;20503;-75
2021/06/02 03:03:46;;;;;;;2.85;1.90;;;14.40;64.50;;;;;;5116531;27;20034;-75
2021/06/02 03:06:35;;;;;;;4.97;2.05;;;14.30;64.90;;;;;;5116222;27;20028;-74
2021/06/02 03:09:10;;;;;;;2.40;1.90;;;14.30;65.10;;;;;;5134467;27;20020;-74
2021/06/02 03:12:00;;;;;;;4.00;2.20;;;14.30;64.90;;;;;;5103539;28;20062;-74
2021/06/02 03:14:49;;;;;;;2.67;2.00;;;14.20;65.20;;;;;;5114315;28;20020;-74
2021/06/02 03:17:33;;;;;;;2.67;1.90;;;14.20;65.60;;;;;;5113690;28;20035;-74
2021/06/02 03:20:04;;;;;;;2.95;2.10;;;14.00;66.10;;;;;;5113778;28;20034;-76
2021/06/02 03:22:51;;;;;;;2.85;1.98;;;13.80;66.50;;;;;;5104552;27;20035;-74
2021/06/02 03:25:40;;;;;;;3.80;2.38;;;13.90;66.60;;;;;;5121161;27;20044;-74
2021/06/02 03:28:23;;;;;;;2.42;1.95;;;14.00;66.20;;;;;;5122871;27;20506;-75
2021/06/02 03:31:40;;;;;;;3.53;2.30;;;14.00;66.00;;;;;;5106444;27;20028;-75
2021/06/02 03:34:22;;;;;;;6.60;2.40;;;14.00;66.30;;;;;;5071607;27;20038;-75
2021/06/02 03:37:13;;;;;;;3.55;1.98;;;13.90;66.20;;;;;;5098239;28;20042;-74
2021/06/02 03:39:57;;;;;;;2.72;2.25;;;13.90;66.30;;;;;;5095905;28;20023;-74
2021/06/02 03:42:47;;;;;;;5.45;2.30;;;13.90;65.70;;;;;;5094991;28;20131;-75
2021/06/02 03:45:28;;;;;;;3.38;1.92;;;14.00;65.60;;;;;;5094934;28;20028;-75
2021/06/02 03:48:39;;;;;;;2.95;2.22;;;14.10;66.00;;;;;;5113486;28;20469;-75
2021/06/02 03:51:56;;;;;;;3.22;2.15;;;14.10;65.90;;;;;;5018455;28;20034;-75
2021/06/02 03:54:42;;;;;;;2.50;2.10;;;14.00;65.60;;;;;;5050083;28;20039;-75
2021/06/02 03:57:34;;;;;;;2.72;2.25;;;14.00;66.60;;;;;;5133586;27;20039;-75
2021/06/02 04:00:09;;;;;;;;;;;14.00;66.30;;;;;;5101814;28;20135;-75
2021/06/02 04:02:40;;;;;;;4.63;2.33;;;14.00;66.40;;;;;;5091831;28;20319;-74
2021/06/02 04:05:41;;;;;;;3.03;2.42;;;14.00;65.80;;;;;;5074496;28;20077;-74
2021/06/02 04:08:34;;;;;;;3.42;2.45;;;14.00;65.80;;;;;;5091946;28;20116;-74
2021/06/02 04:11:36;;;;;;;3.88;2.10;;;13.90;66.10;;;;;;5108137;27;20023;-74
2021/06/02 04:14:05;;;;;;;4.70;2.17;;;14.00;66.10;;;;;;5114835;27;20096;-74
2021/06/02 04:16:34;;;;;;;4.18;2.42;;;13.90;66.30;;;;;;5115444;27;20360;-74
2021/06/02 04:19:14;;;;;;;4.40;2.22;;;13.90;66.30;;;;;;5133200;27;20520;-75
2021/06/02 04:21:44;;;;;;;4.63;2.55;;;14.00;66.30;;;;;;5101833;28;20034;-74
2021/06/02 04:24:15;;;;;;;3.60;2.78;;;14.00;65.90;;;;;;5094084;28;20043;-74
2021/06/02 04:26:43;;;;;;;6.47;2.65;;;14.00;67.10;;;;;;5113305;28;20079;-74
2021/06/02 04:29:11;;;;;;;4.85;2.53;;;14.10;66.60;;;;;;5094102;28;20525;-74
2021/06/02 04:31:38;;;;;;;5.88;2.88;;;14.10;67.00;;;;;;5104716;27;20084;-74
2021/06/02 04:34:04;;;;;;;4.70;2.60;;;14.00;66.60;;;;;;5121181;27;20024;-75
2021/06/02 04:36:31;;;;;;;4.13;2.90;;;14.00;66.40;;;;;;5105342;27;20379;-74
2021/06/02 04:39:00;;;;;;;5.63;2.80;;;14.00;66.50;;;;;;5104456;28;20032;-74
2021/06/02 04:41:28;;;;;;;3.78;2.60;;;14.00;66.50;;;;;;5100746;28;20038;-76
2021/06/02 04:43:56;;;;;;;5.35;2.60;;;14.00;66.60;;;;;;5104290;28;20028;-77
2021/06/02 04:46:22;;;;;;;3.40;2.55;;;14.00;66.60;;;;;;5116349;28;20098;-77
2021/06/02 04:48:52;;;;;;;8.70;4.97;;;14.00;66.70;;;;;;5094638;28;20039;-74
2021/06/02 04:51:36;;;;;;;9.02;5.97;;;14.20;67.40;;;;;;5094036;28;20035;-73
2021/06/02 04:54:45;;;;;;;9.70;5.70;;;14.20;68.00;;;;;;5094100;28;20408;-74
2021/06/02 04:57:45;;;;;;;4.43;2.80;;;14.20;67.70;;;;;;5117754;28;20035;-73
2021/06/02 05:00:22;;;;;;;5.97;2.75;;;14.20;67.10;;;;;;5117407;28;20031;-74
2021/06/02 05:03:22;;;;;;;7.13;2.63;;;14.20;66.30;;;;;;5101864;28;20494;-74
2021/06/02 05:06:26;;;;;;;3.97;2.47;;;14.10;67.00;;;;;;5120150;28;20026;-74
2021/06/02 05:09:04;;;;;;;3.72;2.80;;;14.10;68.10;;;;;;5111047;28;20019;-74
2021/06/02 05:11:41;;;;;;;5.15;2.70;;;14.00;67.50;;;;;;5078031;28;20024;-74
2021/06/02 05:14:13;;;;;;;4.90;3.05;;;14.10;67.00;;;;;;5094705;28;20453;-76
2021/06/02 05:17:10;;;;;;;4.00;2.72;;;14.20;67.80;;;;;;5131963;28;20039;-73
2021/06/02 05:20:01;;;;;;;5.47;2.83;;;14.30;67.60;;;;;;5117103;27;20042;-73
2021/06/02 05:22:57;;;;;;;5.10;3.08;;;14.30;67.30;;;;;;5119836;27;20051;-74
2021/06/02 05:25:53;;;;;;;7.90;2.85;;;14.30;67.30;;;;;;5108723;28;20052;-74
2021/06/02 05:29:01;;;;;;;3.35;2.20;;;14.40;67.00;;;;;;5133020;27;20256;-74
2021/06/02 05:32:04;;;;;;;5.38;2.65;;;14.40;67.50;;;;;;5105714;27;20028;-75
2021/06/02 05:34:41;;;;;;;5.43;2.47;;;14.40;67.80;;;;;;5114765;27;20114;-75
2021/06/02 05:37:40;;;;;;;5.93;2.50;;;14.40;68.10;;;;;;5122486;27;20080;-74
2021/06/02 05:40:43;;;;;;;4.72;2.58;;;14.50;67.80;;;;;;5102563;28;20046;-75
2021/06/02 05:43:30;;;;;;;3.42;2.20;;;14.50;67.50;;;;;;5100878;27;20023;-76
2021/06/02 05:46:33;;;;;;;5.00;2.22;;;14.70;67.30;;;;;;5106276;27;20031;-75
2021/06/02 05:49:16;;;;;;;6.25;2.03;;;14.70;66.90;;;;;;5114341;28;20020;-75
2021/06/02 05:52:07;;;;;;;3.47;2.35;;;14.80;66.70;;;;;;5122052;27;20027;-75
2021/06/02 05:55:15;;;;;;;4.03;2.20;;;14.80;66.20;;;;;;5103723;27;20027;-75
2021/06/02 05:58:08;;;;;;;3.95;1.70;;;14.90;66.10;;;;;;5106110;27;20039;-75
2021/06/02 06:00:52;;;;;;;3.15;2.13;;;14.80;66.20;;;;;;5112365;27;20473;-75
2021/06/02 06:03:37;;;;;;;5.03;1.75;;;14.90;64.90;;;;;;5108547;28;20049;-75
2021/06/02 06:06:27;;;;;;;5.93;2.30;;;14.90;64.90;;;;;;5111155;27;20024;-75
2021/06/02 06:09:12;;;;;;;4.45;1.80;;;14.90;65.50;;;;;;5104629;27;20058;-75
2021/06/02 06:12:08;;;;;;;3.60;1.50;;;15.00;65.20;;;;;;5106428;28;20035;-75
2021/06/02 06:14:52;;;;;;;2.60;1.88;;;15.10;63.80;;;;;;5132257;27;20019;-75
2021/06/02 06:17:38;;;;;;;2.50;1.98;;;15.20;64.50;;;;;;5104869;27;20054;-75
2021/06/02 06:20:36;;;;;;;2.92;1.92;;;15.40;64.20;;;;;;5102120;28;20065;-76
2021/06/02 06:23:13;;;;;;;3.90;1.48;;;15.40;64.20;;;;;;5120690;27;20081;-76
2021/06/02 06:25:51;;;;;;;4.15;1.80;;;15.50;64.10;;;;;;5124315;27;20027;-76
2021/06/02 06:28:48;;;;;;;2.30;1.70;;;15.60;63.50;;;;;;5109688;28;20024;-74
2021/06/02 06:31:30;;;;;;;32.05;14.82;;;15.60;63.50;;;;;;5119930;27;20031;-74
2021/06/02 06:33:57;;;;;;;;;;;15.70;64.40;;;;;;5103696;28;20024;-74
2021/06/02 06:36:25;;;;;;;6.07;3.40;;;15.80;64.90;;;;;;5112835;27;19907;-74
2021/06/02 06:39:39;;;;;;;4.13;2.10;;;15.80;64.80;;;;;;5112916;27;20031;-73
2021/06/02 06:42:07;;;;;;;4.28;1.83;;;15.80;64.70;;;;;;5119867;27;20103;-74
2021/06/02 06:44:34;;;;;;;5.45;1.95;;;15.80;64.00;;;;;;5124015;27;20032;-75
2021/06/02 06:47:01;;;;;;;5.07;1.67;;;15.90;63.50;;;;;;5096656;28;20153;-76
2021/06/02 06:49:30;;;;;;;2.50;1.70;;;15.90;62.80;;;;;;5113346;27;20027;-74
2021/06/02 06:51:57;;;;;;;3.13;1.50;;;16.00;62.30;;;;;;5102547;27;20020;-75
2021/06/02 06:54:23;;;;;;;3.30;1.50;;;16.10;62.00;;;;;;5124610;27;20039;-75
2021/06/02 06:56:51;;;;;;;2.90;1.70;;;16.10;61.20;;;;;;5109596;27;20031;-74
2021/06/02 06:59:19;;;;;;;2.78;1.25;;;16.20;60.60;;;;;;5113082;27;20392;-75
2021/06/02 07:01:46;;;;;;;1.88;1.20;;;16.20;60.00;;;;;;5111870;28;20016;-74
2021/06/02 07:04:12;;;;;;;1.75;1.38;;;16.30;59.00;;;;;;5122363;27;20464;-74
2021/06/02 07:06:38;;;;;;;2.05;1.60;;;16.40;58.90;;;;;;5104229;28;20035;-74
2021/06/02 07:09:07;;;;;;;3.08;1.50;;;16.40;58.80;;;;;;5110987;27;20027;-75
2021/06/02 07:11:40;;;;;;;2.22;1.40;;;16.50;58.70;;;;;;5099305;27;20023;-74
2021/06/02 07:14:08;;;;;;;1.70;1.25;;;16.50;59.10;;;;;;5108314;28;20034;-74
2021/06/02 07:16:39;;;;;;;4.90;1.58;;;16.50;59.30;;;;;;5125606;27;20027;-74
2021/06/02 07:19:10;;;;;;;2.88;1.83;;;16.60;59.30;;;;;;5109982;27;20069;-74
2021/06/02 07:21:40;;;;;;;2.70;1.42;;;16.60;59.00;;;;;;5099006;27;20019;-75
2021/06/02 07:24:08;;;;;;;1.50;1.38;;;16.70;59.30;;;;;;5107692;28;20044;-75
2021/06/02 07:26:34;;;;;;;2.67;1.58;;;16.70;59.20;;;;;;5125561;27;20042;-75
2021/06/02 07:29:00;;;;;;;1.60;1.35;;;16.80;59.00;;;;;;5100679;28;20023;-77
2021/06/02 07:31:26;;;;;;;3.53;1.42;;;16.90;59.30;;;;;;5102582;27;20080;-75
2021/06/02 07:33:51;;;;;;;3.70;1.50;;;17.00;59.20;;;;;;5110707;27;20118;-76
2021/06/02 07:36:17;;;;;;;2.95;1.40;;;17.00;59.10;;;;;;5124363;27;20116;-75
2021/06/02 07:38:43;;;;;;;1.60;1.30;;;17.10;59.10;;;;;;5126786;27;20023;-75
2021/06/02 07:41:09;;;;;;;3.25;1.65;;;17.10;58.90;;;;;;5097988;28;20024;-75
2021/06/02 07:43:34;;;;;;;2.25;1.20;;;17.10;59.20;;;;;;5133411;27;20028;-76
2021/06/02 07:46:00;;;;;;;1.73;1.23;;;17.20;58.80;;;;;;5126746;27;20357;-75
2021/06/02 07:48:26;;;;;;;3.40;1.30;;;17.20;58.80;;;;;;5124004;27;20031;-75
2021/06/02 07:50:52;;;;;;;2.92;1.45;;;17.20;58.90;;;;;;5107775;28;20034;-75
2021/06/02 07:53:18;;;;;;;2.70;1.40;;;17.20;59.20;;;;;;5111316;27;20027;-75
2021/06/02 07:55:44;;;;;;;3.92;1.50;;;17.20;58.60;;;;;;5117877;27;20035;-75
2021/06/02 07:58:09;;;;;;;4.32;1.30;;;17.30;59.30;;;;;;5133328;27;20102;-75
2021/06/02 08:00:35;;;;;;;2.08;1.40;;;17.50;57.30;;;;;;5103706;28;20114;-76
2021/06/02 08:03:01;;;;;;;2.72;1.42;;;17.50;56.90;;;;;;5128169;27;20122;-77
2021/06/02 08:05:26;;;;;;;5.30;1.30;;;17.50;56.50;;;;;;5098923;28;20031;-76
2021/06/02 08:07:52;;;;;;;4.82;1.77;;;17.50;56.50;;;;;;5099558;27;20383;-76
2021/06/02 08:10:18;;;;;;;2.33;1.65;;;17.60;57.40;;;;;;5113983;27;20038;-76
2021/06/02 08:12:45;;;;;;;3.88;1.50;;;17.70;55.80;;;;;;5096761;28;20402;-75
2021/06/02 08:15:12;;;;;;;1.98;1.30;;;17.70;55.70;;;;;;5114254;27;20027;-75
2021/06/02 08:17:39;;;;;;;5.05;1.80;;;17.80;57.30;;;;;;5094410;27;20403;-76
2021/06/02 08:20:06;;;;;;;2.58;1.60;;;17.80;55.90;;;;;;5114316;27;20050;-77
2021/06/02 08:22:32;;;;;;;3.90;1.50;;;18.00;56.10;;;;;;5095960;28;20024;-75
2021/06/02 08:24:58;;;;;;;3.83;2.00;;;18.10;55.90;;;;;;5090629;28;20626;-75
2021/06/02 08:27:24;;;;;;;2.20;1.58;;;18.00;55.20;;;;;;5090204;28;20039;-74
2021/06/02 08:29:53;;;;;;;3.15;1.65;;;18.00;55.00;;;;;;5089284;28;20103;-74
2021/06/02 08:32:20;;;;;;;4.05;1.67;;;18.00;54.50;;;;;;5090230;28;20028;-75
2021/06/02 08:34:46;;;;;;;5.53;1.55;;;18.10;54.50;;;;;;5090338;28;20549;-75
2021/06/02 08:37:15;;;;;;;2.28;1.60;;;18.30;53.80;;;;;;5091161;28;20099;-75
2021/06/02 08:39:42;;;;;;;2.47;1.20;;;18.30;53.20;;;;;;5091068;28;20031;-75
2021/06/02 08:42:09;;;;;;;4.22;1.50;;;18.30;53.00;;;;;;5090647;28;20034;-75
2021/06/02 08:44:36;;;;;;;4.43;1.40;;;18.30;53.00;;;;;;5090287;28;20032;-75
2021/06/02 08:47:02;;;;;;;2.22;1.65;;;18.20;53.20;;;;;;5090246;28;20453;-75
2021/06/02 08:49:28;;;;;;;2.15;1.50;;;18.20;53.40;;;;;;5089723;28;20377;-75
2021/06/02 08:51:55;;;;;;;1.67;1.38;;;18.30;53.50;;;;;;5090837;28;20030;-74
2021/06/02 08:54:24;;;;;;;3.08;1.40;;;18.30;53.50;;;;;;5093568;28;20036;-74
2021/06/02 08:56:51;;;;;;;4.45;2.08;;;18.40;54.40;;;;;;5094706;28;20122;-77
2021/06/02 08:59:18;;;;;;;2.67;1.65;;;18.50;54.30;;;;;;5091779;28;20040;-77
2021/06/02 09:01:44;;;;;;;5.47;2.25;;;18.60;54.10;;;;;;5094591;28;20024;-77
2021/06/02 09:04:10;;;;;;;4.53;2.25;;;18.70;54.10;;;;;;5094233;28;20028;-78
2021/06/02 09:06:43;;;;;;;7.88;2.10;;;18.80;54.00;;;;;;5094494;28;20032;-75
2021/06/02 09:09:11;;;;;;;4.55;1.90;;;18.90;53.60;;;;;;5092209;28;20028;-75
2021/06/02 09:11:51;;;;;;;4.05;2.08;;;19.10;52.70;;;;;;5093389;28;20028;-76
2021/06/02 09:14:37;;;;;;;7.13;1.80;;;19.20;51.10;;;;;;5093238;28;20032;-82
2021/06/02 09:17:07;;;;;;;3.92;2.08;;;19.20;51.20;;;;;;5089821;28;20032;-84
2021/06/02 09:19:38;;;;;;;2.72;1.60;;;19.20;52.20;;;;;;5094444;28;20032;-84
2021/06/02 09:22:05;;;;;;;4.10;1.80;;;19.30;49.80;;;;;;5092805;28;20036;-81
2021/06/02 09:24:47;;;;;;;8.35;4.93;;;19.30;49.50;;;;;;5113069;27;20130;-82
2021/06/02 09:27:13;;;;;;;11.15;4.80;;;19.50;48.00;;;;;;5096747;27;20023;-83
2021/06/02 09:29:51;;;;;;;11.10;2.50;;;19.50;47.40;;;;;;5104679;27;20027;-82
2021/06/02 09:32:19;;;;;;;36.28;19.80;;;19.60;47.50;;;;;;5104097;28;20020;-83
2021/06/02 09:34:45;;;;;;;10.57;6.78;;;19.60;47.20;;;;;;5100092;28;20486;-78
2021/06/02 09:37:10;;;;;;;10.85;6.40;;;19.60;47.80;;;;;;5098369;28;20036;-78
2021/06/02 09:39:41;;;;;;;6.65;2.25;;;19.70;47.80;;;;;;5103659;27;20027;-86
2021/06/02 09:42:17;;;;;;;3.83;2.20;;;19.60;47.10;;;;;;5100128;28;20030;-82
2021/06/02 09:44:42;;;;;;;2.88;1.77;;;19.60;46.60;;;;;;5103740;28;20032;-81
2021/06/02 09:47:09;;;;;;;3.47;1.90;;;19.60;47.10;;;;;;5095330;28;20035;-84
2021/06/02 09:49:46;;;;;;;5.05;2.00;;;19.60;47.60;;;;;;5097559;27;20059;-80
2021/06/02 09:52:12;;;;;;;20.13;12.10;;;19.70;47.90;;;;;;5098275;28;20050;-79
2021/06/02 09:54:38;;;;;;;24.02;13.25;;;19.80;48.30;;;;;;5099463;28;20476;-83
2021/06/02 09:57:14;;;;;;;8.73;4.47;;;19.80;47.20;;;;;;5097157;28;20087;-80
2021/06/02 09:59:56;;;;;;;6.45;3.70;;;19.80;46.80;;;;;;5098544;27;20027;-81
2021/06/02 10:02:21;;;;;;;4.32;2.08;;;19.80;47.00;;;;;;5093294;28;20468;-81
2021/06/02 10:05:11;;;;;;;4.00;1.95;;;19.80;47.00;;;;;;5114940;28;20036;-82
2021/06/02 10:07:47;;;;;;;1.90;1.55;;;19.80;47.40;;;;;;5121467;27;20090;-80
2021/06/02 10:10:19;;;;;;;3.30;1.70;;;19.90;49.90;;;;;;5095202;28;20112;-79
2021/06/02 10:13:03;;;;;;;2.67;1.23;;;20.00;48.20;;;;;;5124912;27;20034;-77
2021/06/02 10:15:41;;;;;;;1.95;1.35;;;20.10;46.10;;;;;;5113598;27;20023;-79
2021/06/02 10:18:37;;;;;;;2.67;1.20;;;20.10;46.70;;;;;;5104456;27;20020;-80
2021/06/02 10:21:13;;;;;;;2.35;1.50;;;20.10;46.40;;;;;;5114954;27;20035;-81
2021/06/02 10:23:44;;;;;;;3.00;1.85;;;20.10;46.90;;;;;;5117865;27;20055;-80
2021/06/02 10:26:12;;;;;;;6.22;3.25;;;20.20;47.20;;;;;;5127344;27;20031;-85
2021/06/02 10:28:38;;;;;;;3.30;1.35;;;20.20;48.00;;;;;;5106722;27;20524;-82
2021/06/02 10:31:06;;;;;;;3.15;1.60;;;20.30;46.70;;;;;;5124535;27;20076;-81
2021/06/02 10:33:33;;;;;;;6.03;1.73;;;20.30;46.70;;;;;;5108644;27;20019;-81
2021/06/02 10:36:01;;;;;;;4.03;1.50;;;20.40;46.60;;;;;;5103069;28;20032;-80
2021/06/02 10:38:31;;;;;;;1.50;1.30;;;20.50;46.00;;;;;;5114817;27;20080;-82
2021/06/02 10:40:58;;;;;;;3.20;1.50;;;20.50;45.80;;;;;;5097974;28;20384;-83
2021/06/02 10:43:33;;;;;;;3.60;1.50;;;20.60;45.70;;;;;;5097459;28;20474;-84
2021/06/02 10:46:06;;;;;;;3.00;1.95;;;20.60;46.00;;;;;;5107153;27;20027;-81
2021/06/02 10:49:02;;;;;;;34.72;18.05;;;20.50;45.50;;;;;;5110762;28;20019;-82
2021/06/02 10:51:31;;;;;;;9.88;5.00;;;20.60;46.30;;;;;;5076817;28;20530;-80
2021/06/02 10:54:11;;;;;;;6.40;3.42;;;20.70;46.10;;;;;;5112380;27;20050;-81
2021/06/02 10:56:42;;;;;;;4.22;1.95;;;20.70;45.40;;;;;;5117829;27;20031;-76
2021/06/02 10:59:30;;;;;;;2.33;1.60;;;20.80;46.00;;;;;;5134600;27;20034;-79
2021/06/02 11:02:13;;;;;;;2.20;1.33;;;21.00;44.50;;;;;;5097425;28;20031;-81
2021/06/02 11:04:58;;;;;;;4.00;1.30;;;21.10;44.90;;;;;;5097388;28;20417;-80
2021/06/02 11:07:26;;;;;;;1.35;1.25;;;21.20;44.20;;;;;;5096521;28;20384;-78
2021/06/02 11:09:57;;;;;;;2.53;1.40;;;21.30;44.00;;;;;;5096985;28;20024;-80
2021/06/02 11:12:24;;;;;;;;;;;21.40;45.10;;;;;;5097249;28;20164;-78
2021/06/02 11:14:52;;;;;;;34.05;18.05;;;21.50;45.70;;;;;;5096740;28;19907;-79
2021/06/02 11:17:19;;;;;;;5.40;2.28;;;21.40;44.10;;;;;;5096016;28;20362;-79
2021/06/02 11:19:50;;;;;;;2.20;1.88;;;21.50;43.20;;;;;;5096738;28;20114;-79
2021/06/02 11:22:25;;;;;;;2.47;1.60;;;21.50;43.50;;;;;;5114317;28;20031;-79
2021/06/02 11:24:52;;;;;;;3.03;1.52;;;21.50;43.60;;;;;;5096201;28;20043;-78
2021/06/02 11:27:18;;;;;;;4.10;1.60;;;21.60;42.80;;;;;;5096199;28;20126;-79
2021/06/02 11:29:52;;;;;;;2.58;1.48;;;21.70;43.10;;;;;;5114481;28;20098;-78
2021/06/02 11:32:28;;;;;;;3.40;1.50;;;21.70;44.40;;;;;;5096369;28;20074;-78
2021/06/02 11:34:59;;;;;;;2.20;1.60;;;21.80;45.00;;;;;;5096471;28;20513;-78
2021/06/02 11:37:27;;;;;;;2.58;1.63;;;21.90;44.00;;;;;;5095845;28;20031;-79
2021/06/02 11:39:55;;;;;;;2.38;1.33;;;21.90;43.60;;;;;;5096344;28;20035;-79
2021/06/02 11:42:43;;;;;;;4.40;1.35;;;22.00;42.60;;;;;;5095822;28;20499;-78
2021/06/02 11:45:17;;;;;;;2.65;1.20;;;22.10;41.60;;;;;;5113877;28;20027;-79
2021/06/02 11:47:51;;;;;;;4.65;2.00;;;22.10;42.60;;;;;;5114438;28;20112;-78
2021/06/02 11:50:24;;;;;;;3.50;1.88;;;22.20;45.00;;;;;;5095793;28;20533;-78
2021/06/02 11:52:59;;;;;;;4.38;2.72;;;22.40;45.90;;;;;;5114256;28;20028;-79
2021/06/02 11:55:26;;;;;;;3.15;1.70;;;22.50;44.50;;;;;;5095655;28;20217;-81
2021/06/02 11:57:53;;;;;;;1.70;1.50;;;22.70;45.10;;;;;;5096143;27;20037;-83
2021/06/02 12:00:24;;;;;;;2.92;1.67;;;22.80;45.10;;;;;;5102976;27;20035;-82
2021/06/02 12:02:53;;;;;;;3.10;1.52;;;22.80;44.50;;;;;;5111624;27;20052;-83
2021/06/02 12:05:27;;;;;;;2.05;1.42;;;23.00;41.40;;;;;;5107487;27;20042;-79
2021/06/02 12:08:06;;;;;;;1.73;1.45;;;23.10;40.70;;;;;;5102153;27;20483;-83
2021/06/02 12:10:47;;;;;;;1.88;1.50;;;23.20;41.50;;;;;;5127106;27;20055;-84
2021/06/02 12:13:18;;;;;;;1.38;1.15;;;23.30;41.60;;;;;;5116922;27;20035;-81
2021/06/02 12:15:48;;;;;;;2.03;1.30;;;23.40;44.70;;;;;;5110170;28;20114;-79
2021/06/02 12:18:34;;;;;;;1.27;1.15;;;23.50;43.80;;;;;;5105253;27;20361;-78
2021/06/02 12:21:06;;;;;;;91.45;39.00;;;23.60;41.00;;;;;;5103383;27;20030;-77
2021/06/02 12:23:31;;;;;;;40.55;20.23;;;23.70;43.20;;;;;;5113705;27;20046;-82
2021/06/02 12:25:57;;;;;;;6.05;3.13;;;23.80;42.00;;;;;;5108174;28;20035;-81
2021/06/02 12:28:23;;;;;;;3.15;2.20;;;24.00;39.70;;;;;;5106458;27;20033;-80
2021/06/02 12:30:48;;;;;;;2.45;1.80;;;24.10;40.30;;;;;;5100655;28;20028;-80
2021/06/02 12:33:14;;;;;;;4.72;1.67;;;24.30;39.20;;;;;;5111825;28;20076;-81
2021/06/02 12:35:39;;;;;;;1.88;1.55;;;24.40;39.10;;;;;;5101135;28;20019;-81
2021/06/02 12:38:15;;;;;;;3.10;1.70;;;24.50;38.80;;;;;;5106207;28;20039;-81
2021/06/02 12:40:50;;;;;;;3.03;1.58;;;24.60;38.40;;;;;;5128122;27;20099;-81
2021/06/02 12:43:29;;;;;;;1.67;1.50;;;24.80;38.70;;;;;;5116751;28;20100;-82
2021/06/02 12:46:11;;;;;;;2.00;1.50;;;24.90;38.40;;;;;;5126628;28;20027;-80
2021/06/02 12:48:38;;;;;;;1.60;1.20;;;25.10;37.70;;;;;;5109561;28;20475;-82
2021/06/02 12:51:06;;;;;;;2.30;1.60;;;25.30;38.30;;;;;;5098617;28;20024;-80
2021/06/02 12:53:40;;;;;;;1.88;1.20;;;25.40;36.80;;;;;;5111244;28;20034;-81
2021/06/02 12:56:07;;;;;;;1.50;1.40;;;25.60;36.90;;;;;;5104028;28;20032;-83
2021/06/02 12:58:33;;;;;;;1.40;1.10;;;25.80;37.10;;;;;;5121056;28;20028;-82
2021/06/02 13:01:07;;;;;;;1.58;1.30;;;25.90;37.90;;;;;;5095291;28;20508;-82
2021/06/02 13:03:34;;;;;;;2.70;1.50;;;26.10;37.40;;;;;;5101215;28;20051;-83
2021/06/02 13:06:00;;;;;;;2.22;1.38;;;26.20;38.10;;;;;;5107464;28;20081;-81
2021/06/02 13:08:40;;;;;;;2.85;1.23;;;26.40;37.20;;;;;;5107178;28;20054;-81
2021/06/02 13:11:07;;;;;;;2.03;1.17;;;26.60;35.60;;;;;;5098304;28;20031;-80
2021/06/02 13:13:33;;;;;;;43.70;24.58;;;26.80;36.30;;;;;;5110946;28;20020;-82
2021/06/02 13:16:00;;;;;;;10.60;6.13;;;27.00;35.70;;;;;;5103625;28;20031;-82
2021/06/02 13:18:28;;;;;;;2.90;2.25;;;27.20;34.90;;;;;;5103722;28;20043;-82
2021/06/02 13:20:55;;;;;;;2.88;1.77;;;27.40;35.20;;;;;;5096818;28;20031;-80
2021/06/02 13:23:31;;;;;;;1.50;1.23;;;27.50;34.10;;;;;;5097475;28;20137;-80
2021/06/02 13:26:02;;;;;;;2.55;1.45;;;27.60;33.00;;;;;;5096616;28;20037;-82
2021/06/02 13:28:30;;;;;;;1.52;1.40;;;27.90;34.20;;;;;;5096887;28;20042;-82
2021/06/02 13:31:02;;;;;;;2.58;1.30;;;28.20;33.10;;;;;;5094709;28;20020;-82